createdAt,value
2022-10-23T00:00:37.688Z,101407.78
2022-10-23T00:04:39.209Z,101413.44
2022-10-23T00:08:41.376Z,101412.91
2022-10-23T00:12:43.081Z,101417.75
2022-10-23T00:16:45.301Z,101420.53
2022-10-23T00:20:46.726Z,101421.44
2022-10-23T00:24:48.202Z,101422.19
2022-10-23T00:28:52.371Z,101416.91
2022-10-23T00:32:54.171Z,101417.72
2022-10-23T00:36:55.624Z,101417.22
2022-10-23T00:40:57.186Z,101424.13
2022-10-23T00:45:13.839Z,101425.13
2022-10-23T00:49:16.047Z,101425.59
2022-10-23T00:53:20.198Z,101418.34
2022-10-23T00:57:21.680Z,101425.97
2022-10-23T01:01:24.006Z,101420.88
2022-10-23T01:05:32.727Z,101431.63
2022-10-23T01:09:54.965Z,101435.84
2022-10-23T01:14:17.506Z,101434.16
2022-10-23T01:18:41.040Z,101441.06
2022-10-23T01:22:42.738Z,101449.44
2022-10-23T01:27:13.578Z,101449.63
2022-10-23T01:31:36.535Z,101457.19
2022-10-23T01:35:47.782Z,101450.69
2022-10-23T01:39:53.712Z,101456.28
2022-10-23T01:44:10.832Z,101455.53
2022-10-23T01:48:17.867Z,101452.34
2022-10-23T01:52:21.023Z,101449.75
2022-10-23T01:56:28.791Z,101450.19
2022-10-23T02:00:30.674Z,101451.00
2022-10-23T02:04:38.198Z,101445.94
2022-10-23T02:08:40.229Z,101448.97
2022-10-23T02:12:57.959Z,101446.28
2022-10-23T02:17:08.867Z,101455.59
2022-10-23T02:21:14.187Z,101460.94
2022-10-23T02:25:20.112Z,101463.06
2022-10-23T02:29:39.008Z,101456.53
2022-10-23T02:33:41.060Z,101464.06
2022-10-23T02:37:42.774Z,101460.41
2022-10-23T02:42:02.643Z,101463.44
2022-10-23T02:46:14.254Z,101468.53
2022-10-23T02:50:32.642Z,101466.09
2022-10-23T02:54:42.439Z,101471.53
2022-10-23T02:58:59.670Z,101458.00
2022-10-23T03:03:14.618Z,101459.13
2022-10-23T03:07:19.382Z,101452.75
2022-10-23T03:11:20.912Z,101453.78
2022-10-23T03:15:23.459Z,101453.03
2022-10-23T03:19:26.403Z,101448.59
2022-10-23T03:23:27.879Z,101450.69
2022-10-23T03:31:38.900Z,101436.84
2022-10-23T03:35:40.595Z,101435.38
2022-10-23T03:39:42.603Z,101433.66
2022-10-23T03:43:44.042Z,101433.44
2022-10-23T03:47:45.690Z,101431.84
2022-10-23T03:51:52.564Z,101436.59
2022-10-23T03:55:55.646Z,101431.72
2022-10-23T03:59:57.097Z,101444.34
2022-10-23T04:04:05.755Z,101452.81
2022-10-23T04:08:10.228Z,101456.19
2022-10-23T04:12:12.487Z,101452.50
2022-10-23T04:16:13.889Z,101451.63
2022-10-23T04:20:15.472Z,101452.94
2022-10-23T04:24:16.975Z,101461.78
2022-10-23T04:28:18.392Z,101457.44
2022-10-23T04:32:20.435Z,101457.56
2022-10-23T04:36:22.613Z,101464.66
2022-10-23T04:40:24.417Z,101468.34
2022-10-23T04:44:28.512Z,101462.53
2022-10-23T04:48:29.927Z,101465.13
2022-10-23T04:52:58.172Z,101484.03
2022-10-23T04:56:59.554Z,101473.22
2022-10-23T05:01:15.123Z,101471.59
2022-10-23T05:05:17.928Z,101467.09
2022-10-23T05:09:32.404Z,101475.16
2022-10-23T05:13:41.828Z,101472.31
2022-10-23T05:17:48.077Z,101472.59
2022-10-23T05:21:55.851Z,101481.34
2022-10-23T05:26:03.174Z,101481.34
2022-10-23T05:30:06.537Z,101476.72
2022-10-23T05:34:16.860Z,101459.81
2022-10-23T05:38:19.566Z,101468.66
2022-10-23T05:42:21.059Z,101462.41
2022-10-23T05:46:27.806Z,101470.53
2022-10-23T05:50:45.508Z,101458.31
2022-10-23T05:54:53.706Z,101460.88
2022-10-23T05:59:19.071Z,101457.16
2022-10-23T06:03:26.596Z,101464.91
2022-10-23T06:07:32.323Z,101459.78
2022-10-23T06:11:38.860Z,101453.72
2022-10-23T06:15:46.243Z,101456.63
2022-10-23T06:19:53.232Z,101453.06
2022-10-23T06:23:55.737Z,101453.84
2022-10-23T06:28:23.660Z,101458.41
2022-10-23T06:32:25.333Z,101459.28
2022-10-23T06:36:43.650Z,101460.06
2022-10-23T06:41:16.858Z,101465.56
2022-10-23T06:45:21.578Z,101477.97
2022-10-23T06:49:23.068Z,101475.28
2022-10-23T06:53:25.065Z,101478.75
2022-10-23T06:57:36.802Z,101476.03
2022-10-23T07:01:41.127Z,101479.59
2022-10-23T07:05:44.839Z,101472.31
2022-10-23T07:09:47.557Z,101473.28
2022-10-23T07:13:57.165Z,101483.13
2022-10-23T07:17:58.588Z,101486.34
2022-10-23T07:22:04.461Z,101501.53
2022-10-23T07:26:19.624Z,101505.00
2022-10-23T07:30:22.544Z,101492.69
2022-10-23T07:34:28.468Z,101505.81
2022-10-23T07:38:50.589Z,101512.56
2022-10-23T07:42:52.055Z,101509.19
2022-10-23T07:46:53.644Z,101511.88
2022-10-23T07:51:01.382Z,101510.78
2022-10-23T07:55:03.539Z,101505.69
2022-10-23T07:59:09.409Z,101512.03
2022-10-23T08:03:12.671Z,101506.50
2022-10-23T08:07:14.292Z,101503.66
2022-10-23T08:11:25.804Z,101505.22
2022-10-23T08:15:27.479Z,101504.97
2022-10-23T08:19:36.436Z,101507.44
2022-10-23T08:23:38.159Z,101507.25
2022-10-23T08:27:40.201Z,101503.09
2022-10-23T08:31:42.236Z,101497.13
2022-10-23T08:35:57.159Z,101487.50
2022-10-23T08:40:05.050Z,101485.66
2022-10-23T08:44:45.872Z,101490.78
2022-10-23T08:48:55.070Z,101497.03
2022-10-23T08:53:32.668Z,101494.19
2022-10-23T08:57:43.728Z,101506.81
2022-10-23T09:01:53.788Z,101517.84
2022-10-23T09:06:25.375Z,101515.97
2022-10-23T09:10:51.454Z,101510.19
2022-10-23T09:15:04.193Z,101507.75
2022-10-23T09:19:16.038Z,101505.97
2022-10-23T09:23:19.794Z,101508.31
2022-10-23T09:27:21.901Z,101502.19
2022-10-23T09:31:23.415Z,101507.31
2022-10-23T09:35:28.373Z,101510.38
2022-10-23T09:39:32.691Z,101505.97
2022-10-23T09:43:34.220Z,101515.88
2022-10-23T09:47:38.549Z,101509.34
2022-10-23T09:51:41.758Z,101507.66
2022-10-23T09:55:44.489Z,101513.25
2022-10-23T09:59:52.517Z,101508.34
2022-10-23T10:03:53.994Z,101506.97
2022-10-23T10:08:05.619Z,101505.56
2022-10-23T10:12:19.194Z,101506.31
2022-10-23T10:20:54.590Z,101501.03
2022-10-23T10:25:12.636Z,101492.59
2022-10-23T10:29:31.212Z,101493.28
2022-10-23T10:33:51.216Z,101492.75
2022-10-23T10:38:10.274Z,101497.25
2022-10-23T10:42:20.468Z,101503.50
2022-10-23T10:46:36.348Z,101498.47
2022-10-23T10:51:07.367Z,101488.19
2022-10-23T10:55:32.191Z,101475.34
2022-10-23T10:59:41.666Z,101467.41
2022-10-23T11:03:52.107Z,101468.06
2022-10-23T11:07:58.785Z,101458.38
2022-10-23T11:12:00.219Z,101451.63
2022-10-23T11:16:21.102Z,101449.38
2022-10-23T11:20:36.251Z,101457.75
2022-10-23T11:25:12.599Z,101439.31
2022-10-23T11:29:32.311Z,101435.97
2022-10-23T11:34:07.456Z,101426.91
2022-10-23T11:38:36.870Z,101417.91
2022-10-23T11:42:41.273Z,101410.16
2022-10-23T11:46:42.938Z,101406.91
2022-10-23T11:50:44.322Z,101395.06
2022-10-23T11:54:45.764Z,101391.50
2022-10-23T11:58:51.367Z,101382.78
2022-10-23T12:02:59.054Z,101377.19
2022-10-23T12:07:05.284Z,101371.38
2022-10-23T12:11:27.545Z,101362.06
2022-10-23T12:15:30.535Z,101356.13
2022-10-23T12:19:48.482Z,101352.28
2022-10-23T12:24:05.425Z,101344.75
2022-10-23T12:28:22.864Z,101326.53
2022-10-23T12:32:33.497Z,101319.47
2022-10-23T12:37:06.292Z,101323.53
2022-10-23T12:41:15.640Z,101315.66
2022-10-23T12:45:24.919Z,101312.38
2022-10-23T12:49:28.512Z,101306.28
2022-10-23T12:53:29.921Z,101304.16
2022-10-23T12:57:31.520Z,101298.34
2022-10-23T13:01:35.099Z,101296.91
2022-10-23T13:05:37.604Z,101280.69
2022-10-23T13:09:42.951Z,101286.19
2022-10-23T13:13:49.338Z,101274.47
2022-10-23T13:17:53.827Z,101273.94
2022-10-23T13:21:55.238Z,101274.28
2022-10-23T13:26:30.558Z,101271.13
2022-10-23T13:30:35.280Z,101264.19
2022-10-23T13:34:36.703Z,101260.16
2022-10-23T13:38:40.229Z,101252.88
2022-10-23T13:42:43.698Z,101250.72
2022-10-23T13:46:45.631Z,101249.38
2022-10-23T13:50:47.139Z,101245.34
2022-10-23T13:54:49.852Z,101237.94
2022-10-23T13:58:51.729Z,101224.19
2022-10-23T14:07:01.814Z,101221.97
2022-10-23T14:11:03.298Z,101230.00
2022-10-23T14:15:05.206Z,101228.28
2022-10-23T14:19:07.846Z,101217.72
2022-10-23T14:23:09.355Z,101210.34
2022-10-23T14:27:12.156Z,101203.25
2022-10-23T14:31:16.603Z,101194.31
2022-10-23T14:35:18.024Z,101186.53
2022-10-23T14:39:19.493Z,101184.72
2022-10-23T14:43:22.394Z,101175.00
2022-10-23T14:47:24.186Z,101177.69
2022-10-23T14:51:28.156Z,101167.91
2022-10-23T14:55:30.311Z,101168.91
2022-10-23T14:59:31.756Z,101168.00
2022-10-23T15:03:33.219Z,101159.22
2022-10-23T15:07:34.802Z,101144.78
2022-10-23T15:11:36.387Z,101140.16
2022-10-23T15:15:38.985Z,101133.00
2022-10-23T15:19:40.568Z,101128.00
2022-10-23T15:23:44.297Z,101127.03
2022-10-23T15:27:46.007Z,101127.97
2022-10-23T15:32:01.436Z,101134.88
2022-10-23T15:36:02.963Z,101139.81
2022-10-23T15:40:04.825Z,101147.81
2022-10-23T15:44:08.434Z,101136.78
2022-10-23T15:48:09.921Z,101124.56
2022-10-23T15:52:11.483Z,101127.13
2022-10-23T15:56:13.312Z,101115.97
2022-10-23T16:00:18.301Z,101112.31
2022-10-23T16:04:22.016Z,101117.66
2022-10-23T16:08:24.078Z,101115.81
2022-10-23T16:12:26.149Z,101114.81
2022-10-23T16:16:28.952Z,101110.00
2022-10-23T16:20:30.664Z,101098.13
2022-10-23T16:24:32.362Z,101087.50
2022-10-23T16:28:33.816Z,101087.97
2022-10-23T16:32:36.398Z,101090.22
2022-10-23T16:36:41.717Z,101083.59
2022-10-23T16:40:56.620Z,101078.47
2022-10-23T16:45:17.914Z,101073.19
2022-10-23T16:49:19.353Z,101064.66
2022-10-23T16:53:20.837Z,101079.22
2022-10-23T16:57:22.294Z,101068.72
2022-10-23T17:01:27.241Z,101083.78
2022-10-23T17:05:29.128Z,101077.16
2022-10-23T17:09:31.583Z,101067.88
2022-10-23T17:13:33.905Z,101066.03
2022-10-23T17:17:35.345Z,101054.03
2022-10-23T17:21:39.034Z,101057.00
2022-10-23T17:25:40.889Z,101052.66
2022-10-23T17:29:42.298Z,101048.94
2022-10-23T17:33:44.175Z,101043.72
2022-10-23T17:37:45.704Z,101039.09
2022-10-23T17:41:47.793Z,101054.84
2022-10-23T17:45:49.218Z,101049.22
2022-10-23T17:49:50.675Z,101037.78
2022-10-23T17:53:54.491Z,101013.09
2022-10-23T17:57:55.933Z,101006.41
2022-10-23T18:01:59.923Z,100997.88
2022-10-23T18:06:08.920Z,100997.00
2022-10-23T18:10:10.935Z,100981.03
2022-10-23T18:14:12.616Z,100974.47
2022-10-23T18:18:14.031Z,100965.88
2022-10-23T18:22:15.493Z,100954.53
2022-10-23T18:26:26.648Z,100952.53
2022-10-23T18:30:28.248Z,100951.16
2022-10-23T18:34:29.840Z,100930.84
2022-10-23T18:38:31.242Z,100928.50
2022-10-23T18:42:34.545Z,100923.03
2022-10-23T18:46:36.413Z,100928.97
2022-10-23T18:50:38.120Z,100934.50
2022-10-23T18:54:39.554Z,100932.13
2022-10-23T18:58:41.015Z,100919.03
2022-10-23T19:02:42.514Z,100898.91
2022-10-23T19:06:45.521Z,100890.00
2022-10-23T19:10:47.623Z,100889.69
2022-10-23T19:14:49.319Z,100896.81
2022-10-23T19:18:57.548Z,100896.75
2022-10-23T19:22:59.761Z,100887.47
2022-10-23T19:27:02.276Z,100901.81
2022-10-23T19:31:03.882Z,100904.78
2022-10-23T19:35:05.818Z,100916.34
2022-10-23T19:39:07.328Z,100924.03
2022-10-23T19:43:08.884Z,100933.97
2022-10-23T19:47:10.266Z,100933.03
2022-10-23T19:51:13.397Z,100930.16
2022-10-23T19:55:14.971Z,100919.59
2022-10-23T19:59:16.836Z,100930.56
2022-10-23T20:03:19.424Z,100936.59
2022-10-23T20:07:21.270Z,100922.09
2022-10-23T20:11:26.875Z,100900.66
2022-10-23T20:15:28.267Z,100885.97
2022-10-23T20:19:30.022Z,100860.22
2022-10-23T20:23:31.490Z,100859.22
2022-10-23T20:27:32.935Z,100866.28
2022-10-23T20:31:36.391Z,100851.50
2022-10-23T20:35:41.703Z,100853.81
2022-10-23T20:39:44.304Z,100843.09
2022-10-23T20:43:45.792Z,100839.03
2022-10-23T20:47:47.786Z,100845.13
2022-10-23T20:51:55.647Z,100833.34
2022-10-23T20:55:57.298Z,100829.97
2022-10-23T20:59:59.264Z,100839.69
2022-10-23T21:04:02.990Z,100816.66
2022-10-23T21:08:04.699Z,100813.19
2022-10-23T21:12:06.863Z,100799.81
2022-10-23T21:16:17.828Z,100800.41
2022-10-23T21:20:19.284Z,100794.91
2022-10-23T21:24:20.899Z,100793.78
2022-10-23T21:28:22.296Z,100794.28
2022-10-23T21:32:23.786Z,100791.13
2022-10-23T21:36:25.432Z,100802.25
2022-10-23T21:40:26.819Z,100793.63
2022-10-23T21:44:28.252Z,100792.75
2022-10-23T21:48:29.672Z,100785.59
2022-10-23T21:52:31.152Z,100796.72
2022-10-23T21:56:43.310Z,100800.94
2022-10-23T22:00:44.692Z,100803.59
2022-10-23T22:04:46.086Z,100796.16
2022-10-23T22:08:47.848Z,100792.44
2022-10-23T22:12:49.382Z,100785.53
2022-10-23T22:16:52.208Z,100788.13
2022-10-23T22:21:01.323Z,100773.44
2022-10-23T22:25:03.047Z,100771.81
2022-10-23T22:29:10.053Z,100760.28
2022-10-23T22:33:11.489Z,100766.88
2022-10-23T22:37:13.100Z,100766.16
2022-10-23T22:41:14.925Z,100759.16
2022-10-23T22:45:16.381Z,100742.66
2022-10-23T22:49:17.783Z,100735.06
2022-10-23T22:53:19.172Z,100730.41
2022-10-23T22:57:20.641Z,100725.66
2022-10-23T23:01:28.606Z,100715.72
2022-10-23T23:05:30.079Z,100718.53
2022-10-23T23:09:31.506Z,100722.59
2022-10-23T23:13:33.141Z,100716.31
2022-10-23T23:17:34.563Z,100711.25
2022-10-23T23:21:35.951Z,100712.38
2022-10-23T23:25:45.232Z,100712.25
2022-10-23T23:29:46.642Z,100702.44
2022-10-23T23:33:48.645Z,100701.97
2022-10-23T23:37:50.027Z,100703.25
2022-10-23T23:41:51.446Z,100708.91
2022-10-23T23:45:52.939Z,100708.56
2022-10-23T23:49:54.385Z,100705.19
2022-10-23T23:53:55.793Z,100710.28
2022-10-23T23:57:57.202Z,100699.19
